createdAt,value
2024-03-07T00:00:20.516Z,15.38
2024-03-07T00:02:53.101Z,16.02
2024-03-07T00:05:27.835Z,16.25
2024-03-07T00:08:01.083Z,15.52
2024-03-07T00:10:38.149Z,15.43
2024-03-07T00:13:14.332Z,15.40
2024-03-07T00:15:46.210Z,15.75
2024-03-07T00:18:18.292Z,15.70
2024-03-07T00:20:50.387Z,15.73
2024-03-07T00:23:25.249Z,15.88
2024-03-07T00:25:57.338Z,15.82
2024-03-07T00:28:33.589Z,14.32
2024-03-07T00:31:05.543Z,14.95
2024-03-07T00:33:52.984Z,15.23
2024-03-07T00:36:32.034Z,14.55
2024-03-07T00:39:04.613Z,15.82
2024-03-07T00:41:36.683Z,14.77
2024-03-07T00:44:10.755Z,15.35
2024-03-07T00:46:42.551Z,14.45
2024-03-07T00:49:14.574Z,14.13
2024-03-07T00:51:49.089Z,13.90
2024-03-07T00:54:23.444Z,14.57
2024-03-07T00:56:56.463Z,13.85
2024-03-07T00:59:31.128Z,15.68
2024-03-07T01:02:03.545Z,14.77
2024-03-07T01:04:35.420Z,14.27
2024-03-07T01:07:07.072Z,14.63
2024-03-07T01:09:38.902Z,14.88
2024-03-07T01:12:12.629Z,14.40
2024-03-07T01:14:44.597Z,14.10
2024-03-07T01:17:16.780Z,15.00
2024-03-07T01:19:48.914Z,14.07
2024-03-07T01:22:21.376Z,14.43
2024-03-07T01:24:53.148Z,14.07
2024-03-07T01:27:35.738Z,14.40
2024-03-07T01:30:10.949Z,14.27
2024-03-07T01:32:42.799Z,14.40
2024-03-07T01:35:14.846Z,14.45
2024-03-07T01:37:46.593Z,14.32
2024-03-07T01:40:22.092Z,14.77
2024-03-07T01:42:53.833Z,14.63
2024-03-07T01:45:25.525Z,14.85
2024-03-07T01:47:57.735Z,14.75
2024-03-07T01:50:30.044Z,14.43
2024-03-07T01:53:10.978Z,15.43
2024-03-07T01:55:43.114Z,15.18
2024-03-07T01:58:23.642Z,14.50
2024-03-07T02:00:55.673Z,14.43
2024-03-07T02:03:27.553Z,14.30
2024-03-07T02:05:59.908Z,14.60
2024-03-07T02:08:33.123Z,15.43
2024-03-07T02:11:05.203Z,14.60
2024-03-07T02:13:39.049Z,15.27
2024-03-07T02:16:10.927Z,14.88
2024-03-07T02:18:42.845Z,13.55
2024-03-07T02:21:14.823Z,14.50
2024-03-07T02:23:46.655Z,15.25
2024-03-07T02:26:19.849Z,13.93
2024-03-07T02:28:51.642Z,14.73
2024-03-07T02:31:36.401Z,13.85
2024-03-07T02:34:08.831Z,14.35
2024-03-07T02:36:40.587Z,13.38
2024-03-07T02:39:13.098Z,14.57
2024-03-07T02:41:44.869Z,14.77
2024-03-07T02:44:16.627Z,14.57
2024-03-07T02:46:51.086Z,14.90
2024-03-07T02:49:22.829Z,13.75
2024-03-07T02:51:57.757Z,13.30
2024-03-07T02:54:29.761Z,13.25
2024-03-07T02:57:02.431Z,14.05
2024-03-07T02:59:37.872Z,12.95
2024-03-07T03:02:12.547Z,14.02
2024-03-07T03:07:18.939Z,13.30
2024-03-07T03:09:50.717Z,13.57
2024-03-07T03:12:23.801Z,13.85
2024-03-07T03:14:55.689Z,13.43
2024-03-07T03:17:28.652Z,14.23
2024-03-07T03:20:00.551Z,13.82
2024-03-07T03:22:35.044Z,14.18
2024-03-07T03:25:08.292Z,13.60
2024-03-07T03:27:41.383Z,13.13
2024-03-07T03:30:15.220Z,13.45
2024-03-07T03:32:48.573Z,12.77
2024-03-07T03:35:23.658Z,13.32
2024-03-07T03:37:58.076Z,13.40
2024-03-07T03:40:32.956Z,13.10
2024-03-07T03:43:04.777Z,12.65
2024-03-07T03:45:36.767Z,15.48
2024-03-07T03:48:08.849Z,13.30
2024-03-07T03:50:40.705Z,13.13
2024-03-07T03:53:13.022Z,13.40
2024-03-07T03:55:44.763Z,13.80
2024-03-07T03:58:17.999Z,13.95
2024-03-07T04:00:49.980Z,13.85
2024-03-07T04:03:22.104Z,12.88
2024-03-07T04:05:56.830Z,12.82
2024-03-07T04:08:28.983Z,13.00
2024-03-07T04:11:00.765Z,12.88
2024-03-07T04:13:34.884Z,12.88
2024-03-07T04:16:07.243Z,13.20
2024-03-07T04:18:39.931Z,12.85
2024-03-07T04:21:14.226Z,12.85
2024-03-07T04:23:55.198Z,12.52
2024-03-07T04:26:27.545Z,11.65
2024-03-07T04:28:59.367Z,12.48
2024-03-07T04:31:31.145Z,12.07
2024-03-07T04:34:02.820Z,11.50
2024-03-07T04:36:36.096Z,12.07
2024-03-07T04:39:23.589Z,13.10
2024-03-07T04:41:58.137Z,12.48
2024-03-07T04:44:31.308Z,13.13
2024-03-07T04:47:04.579Z,13.45
2024-03-07T04:49:36.645Z,12.68
2024-03-07T04:52:08.313Z,11.90
2024-03-07T04:54:43.330Z,12.93
2024-03-07T04:59:46.672Z,12.32
2024-03-07T05:02:18.844Z,12.27
2024-03-07T05:04:51.795Z,11.60
2024-03-07T05:07:24.712Z,12.88
2024-03-07T05:09:56.890Z,13.05
2024-03-07T05:12:32.084Z,11.40
2024-03-07T05:15:05.419Z,11.55
2024-03-07T05:17:39.132Z,11.38
2024-03-07T05:20:12.052Z,11.65
2024-03-07T05:22:53.145Z,11.90
2024-03-07T05:25:25.058Z,11.50
2024-03-07T05:28:02.211Z,11.10
2024-03-07T05:30:34.506Z,12.25
2024-03-07T05:33:06.254Z,11.38
2024-03-07T05:35:38.446Z,11.13
2024-03-07T05:38:10.191Z,11.60
2024-03-07T05:40:45.404Z,10.82
2024-03-07T05:43:17.111Z,10.68
2024-03-07T05:45:49.288Z,11.75
2024-03-07T05:48:25.385Z,11.75
2024-03-07T05:50:57.760Z,11.77
2024-03-07T05:53:32.593Z,11.02
2024-03-07T05:58:37.507Z,10.13
2024-03-07T06:01:12.743Z,10.88
2024-03-07T06:03:44.575Z,11.38
2024-03-07T06:06:22.273Z,11.40
2024-03-07T06:08:56.532Z,11.10
2024-03-07T06:11:31.760Z,11.75
2024-03-07T06:14:04.840Z,11.10
2024-03-07T06:16:39.885Z,11.00
2024-03-07T06:19:12.622Z,11.82
2024-03-07T06:21:44.629Z,12.20
2024-03-07T06:24:18.729Z,11.15
2024-03-07T06:27:01.271Z,12.02
2024-03-07T06:29:33.275Z,10.70
2024-03-07T06:32:11.753Z,11.35
2024-03-07T06:34:44.151Z,11.75
2024-03-07T06:37:15.964Z,11.27
2024-03-07T06:39:50.791Z,11.57
2024-03-07T06:42:25.863Z,11.52
2024-03-07T06:44:58.900Z,12.13
2024-03-07T06:47:32.779Z,11.10
2024-03-07T06:50:05.189Z,12.77
2024-03-07T06:52:37.785Z,11.05
2024-03-07T06:55:10.022Z,11.40
2024-03-07T06:57:42.288Z,12.32
2024-03-07T07:00:15.424Z,11.50
2024-03-07T07:02:51.893Z,10.95
2024-03-07T07:05:24.536Z,12.13
2024-03-07T07:07:56.521Z,10.90
2024-03-07T07:10:28.424Z,11.35
2024-03-07T07:13:00.636Z,11.27
2024-03-07T07:15:32.340Z,11.93
2024-03-07T07:18:09.291Z,11.70
2024-03-07T07:20:41.229Z,11.27
2024-03-07T07:23:15.454Z,12.45
2024-03-07T07:25:50.367Z,11.10
2024-03-07T07:28:22.835Z,11.80
2024-03-07T07:30:55.883Z,10.37
2024-03-07T07:33:29.252Z,11.18
2024-03-07T07:36:03.685Z,11.15
2024-03-07T07:38:35.662Z,11.73
2024-03-07T07:41:11.459Z,10.85
2024-03-07T07:43:44.178Z,11.13
2024-03-07T07:46:17.640Z,11.60
2024-03-07T07:48:49.399Z,11.65
2024-03-07T07:51:21.497Z,11.27
2024-03-07T07:53:56.490Z,10.77
2024-03-07T07:56:30.800Z,10.68
2024-03-07T07:59:05.708Z,11.88
2024-03-07T08:01:37.443Z,11.85
2024-03-07T08:04:10.983Z,11.23
2024-03-07T08:06:42.747Z,11.32
2024-03-07T08:09:17.779Z,11.57
2024-03-07T08:11:51.535Z,11.90
2024-03-07T08:14:30.022Z,12.07
2024-03-07T08:17:01.770Z,11.75
2024-03-07T08:19:33.848Z,11.50
2024-03-07T08:22:05.634Z,11.15
2024-03-07T08:24:37.496Z,12.57
2024-03-07T08:27:12.508Z,11.73
2024-03-07T08:29:44.657Z,11.68
2024-03-07T08:32:16.803Z,10.95
2024-03-07T08:34:48.866Z,10.95
2024-03-07T08:37:22.476Z,11.85
2024-03-07T08:39:54.920Z,14.35
2024-03-07T08:42:26.685Z,12.23
2024-03-07T08:44:58.598Z,11.38
2024-03-07T08:47:39.104Z,11.95
2024-03-07T08:50:10.961Z,11.90
2024-03-07T08:52:46.385Z,12.18
2024-03-07T08:55:21.252Z,12.18
2024-03-07T08:57:56.085Z,11.88
2024-03-07T09:00:28.672Z,12.98
2024-03-07T09:03:06.788Z,12.15
2024-03-07T09:05:38.927Z,12.15
2024-03-07T09:08:10.710Z,12.88
2024-03-07T09:10:48.772Z,12.27
2024-03-07T09:13:20.544Z,13.18
2024-03-07T09:15:53.733Z,12.70
2024-03-07T09:18:26.715Z,11.95
2024-03-07T09:21:01.621Z,12.55
2024-03-07T09:23:33.467Z,12.30
2024-03-07T09:26:08.448Z,13.48
2024-03-07T09:28:40.952Z,14.02
2024-03-07T09:31:17.489Z,13.93
2024-03-07T09:33:50.111Z,12.80
2024-03-07T09:36:22.617Z,14.15
2024-03-07T09:38:55.035Z,13.95
2024-03-07T09:41:26.970Z,13.15
2024-03-07T09:44:01.501Z,13.82
2024-03-07T09:46:33.548Z,13.57
2024-03-07T09:49:07.947Z,13.60
2024-03-07T09:51:39.965Z,13.15
2024-03-07T09:54:12.159Z,12.52
2024-03-07T09:56:47.757Z,12.50
2024-03-07T09:59:23.539Z,13.82
2024-03-07T10:02:02.973Z,14.38
2024-03-07T10:04:37.647Z,12.65
2024-03-07T10:07:15.100Z,14.02
2024-03-07T10:09:48.706Z,13.38
2024-03-07T10:12:20.622Z,15.02
2024-03-07T10:14:58.695Z,12.88
2024-03-07T10:17:33.252Z,12.85
2024-03-07T10:20:10.784Z,13.55
2024-03-07T10:22:44.805Z,13.35
2024-03-07T10:25:21.774Z,13.45
2024-03-07T10:27:54.182Z,11.95
2024-03-07T10:30:26.661Z,13.13
2024-03-07T10:33:02.005Z,12.05
2024-03-07T10:35:34.961Z,12.93
2024-03-07T10:38:15.117Z,15.20
2024-03-07T10:40:54.948Z,12.48
2024-03-07T10:43:30.624Z,12.60
2024-03-07T10:46:08.019Z,14.15
2024-03-07T10:48:41.786Z,14.77
2024-03-07T10:51:26.337Z,12.57
2024-03-07T10:54:32.400Z,12.07
2024-03-07T10:57:22.351Z,11.82
2024-03-07T11:00:02.823Z,12.30
2024-03-07T11:02:46.155Z,11.93
2024-03-07T11:05:25.431Z,11.43
2024-03-07T11:10:36.258Z,11.52
2024-03-07T11:13:14.187Z,12.25
2024-03-07T11:15:50.204Z,11.63
2024-03-07T11:18:22.325Z,12.23
2024-03-07T11:20:59.102Z,11.68
2024-03-07T11:23:39.881Z,12.75
2024-03-07T11:26:15.010Z,12.23
2024-03-07T11:28:48.686Z,13.30
2024-03-07T11:31:29.102Z,12.38
2024-03-07T11:34:21.005Z,12.60
2024-03-07T11:36:56.780Z,10.95
2024-03-07T11:39:51.164Z,12.05
2024-03-07T11:42:27.987Z,12.30
2024-03-07T11:45:07.175Z,12.02
2024-03-07T11:47:44.238Z,12.02
2024-03-07T11:50:21.016Z,11.40
2024-03-07T11:52:57.735Z,11.65
2024-03-07T11:55:49.146Z,12.07
2024-03-07T11:58:25.706Z,11.18
2024-03-07T12:00:59.723Z,12.65
2024-03-07T12:03:35.475Z,12.25
2024-03-07T12:06:09.483Z,11.68
2024-03-07T12:08:43.178Z,10.85
2024-03-07T12:11:17.272Z,11.23
2024-03-07T12:13:50.026Z,11.63
2024-03-07T12:16:22.490Z,10.63
2024-03-07T12:18:57.331Z,10.55
2024-03-07T12:21:29.347Z,11.80
2024-03-07T12:24:11.709Z,10.65
2024-03-07T12:26:44.052Z,11.00
2024-03-07T12:29:17.009Z,11.20
2024-03-07T12:31:49.818Z,10.13
2024-03-07T12:34:30.983Z,10.75
2024-03-07T12:37:04.633Z,12.40
2024-03-07T12:39:39.820Z,11.25
2024-03-07T12:42:15.836Z,10.98
2024-03-07T12:45:04.368Z,10.82
2024-03-07T12:47:38.594Z,10.00
2024-03-07T12:50:12.437Z,10.45
2024-03-07T12:52:46.966Z,9.67
2024-03-07T12:55:25.211Z,10.80
2024-03-07T12:57:58.149Z,11.32
2024-03-07T13:00:32.847Z,11.02
2024-03-07T13:03:07.377Z,10.90
2024-03-07T13:05:44.383Z,11.05
2024-03-07T13:08:19.414Z,10.70
2024-03-07T13:10:51.622Z,10.98
2024-03-07T13:13:24.147Z,11.00
2024-03-07T13:15:58.936Z,10.85
2024-03-07T13:18:36.277Z,10.60
2024-03-07T13:21:11.947Z,10.82
2024-03-07T13:23:45.746Z,10.35
2024-03-07T13:26:22.228Z,10.27
2024-03-07T13:28:55.480Z,10.65
2024-03-07T13:31:27.534Z,10.75
2024-03-07T13:34:02.948Z,11.73
2024-03-07T13:36:34.981Z,10.07
2024-03-07T13:39:08.963Z,10.90
2024-03-07T13:41:49.424Z,11.32
2024-03-07T13:44:23.468Z,10.48
2024-03-07T13:46:55.829Z,10.15
2024-03-07T13:49:29.220Z,10.43
2024-03-07T13:52:11.948Z,9.82
2024-03-07T13:54:46.003Z,10.00
2024-03-07T13:57:44.619Z,10.63
2024-03-07T14:00:43.574Z,9.95
2024-03-07T14:04:05.033Z,10.32
2024-03-07T14:06:45.858Z,10.77
2024-03-07T14:09:29.664Z,10.77
2024-03-07T14:12:29.669Z,10.70
2024-03-07T14:15:38.959Z,10.48
2024-03-07T14:18:36.971Z,10.30
2024-03-07T14:21:36.189Z,9.93
2024-03-07T14:24:32.836Z,10.30
2024-03-07T14:27:24.146Z,9.88
2024-03-07T14:30:36.365Z,9.45
2024-03-07T14:33:09.324Z,9.30
2024-03-07T14:36:02.065Z,10.27
2024-03-07T14:38:52.878Z,10.18
2024-03-07T14:41:57.677Z,9.00
2024-03-07T14:44:30.081Z,9.70
2024-03-07T14:47:08.525Z,8.75
2024-03-07T14:49:42.979Z,9.30
2024-03-07T14:52:16.125Z,9.23
2024-03-07T14:54:49.006Z,10.13
2024-03-07T14:57:22.975Z,9.27
2024-03-07T14:59:55.858Z,10.77
2024-03-07T15:02:28.165Z,8.65
2024-03-07T15:05:00.329Z,9.98
2024-03-07T15:07:32.417Z,9.65
2024-03-07T15:10:12.569Z,10.32
2024-03-07T15:12:48.136Z,10.23
2024-03-07T15:17:55.194Z,9.48
2024-03-07T15:20:32.483Z,8.57
2024-03-07T15:23:09.423Z,10.43
2024-03-07T15:25:41.386Z,10.00
2024-03-07T15:28:13.629Z,8.93
2024-03-07T15:30:47.276Z,9.02
2024-03-07T15:33:20.231Z,9.98
2024-03-07T15:35:53.454Z,9.75
2024-03-07T15:38:27.067Z,8.82
2024-03-07T15:41:04.969Z,9.77
2024-03-07T15:43:37.181Z,10.18
2024-03-07T15:46:08.974Z,9.80
2024-03-07T15:48:42.368Z,9.52
2024-03-07T15:51:15.720Z,9.20
2024-03-07T15:53:50.439Z,8.35
2024-03-07T15:56:22.364Z,8.45
2024-03-07T15:58:57.267Z,9.95
2024-03-07T16:01:30.215Z,10.48
2024-03-07T16:04:06.694Z,11.43
2024-03-07T16:06:45.225Z,10.90
2024-03-07T16:09:36.641Z,11.23
2024-03-07T16:12:09.229Z,11.73
2024-03-07T16:14:41.047Z,11.77
2024-03-07T16:17:15.295Z,11.57
2024-03-07T16:19:50.333Z,12.40
2024-03-07T16:22:22.558Z,11.90
2024-03-07T16:24:56.311Z,11.55
2024-03-07T16:27:28.061Z,12.90
2024-03-07T16:30:01.054Z,12.82
2024-03-07T16:32:39.310Z,12.23
2024-03-07T16:35:11.239Z,13.50
2024-03-07T16:37:47.353Z,11.82
2024-03-07T16:40:20.938Z,12.80
2024-03-07T16:42:55.222Z,12.43
2024-03-07T16:45:29.528Z,13.40
2024-03-07T16:48:10.603Z,13.73
2024-03-07T16:50:44.423Z,12.48
2024-03-07T16:53:19.659Z,13.27
2024-03-07T16:58:23.522Z,13.52
2024-03-07T17:00:56.754Z,13.43
2024-03-07T17:03:28.566Z,13.93
2024-03-07T17:06:04.065Z,14.38
2024-03-07T17:08:35.881Z,13.90
2024-03-07T17:11:09.078Z,14.65
2024-03-07T17:13:42.974Z,13.85
2024-03-07T17:16:17.601Z,13.60
2024-03-07T17:18:50.389Z,18.35
2024-03-07T17:21:22.247Z,13.48
2024-03-07T17:23:57.079Z,13.57
2024-03-07T17:29:04.462Z,12.57
2024-03-07T17:31:36.807Z,13.88
2024-03-07T17:34:09.007Z,13.48
2024-03-07T17:36:45.302Z,13.20
2024-03-07T17:39:17.252Z,13.05
2024-03-07T17:41:50.929Z,12.10
2024-03-07T17:44:22.840Z,12.65
2024-03-07T17:46:54.784Z,15.05
2024-03-07T17:49:26.525Z,12.48
2024-03-07T17:51:59.007Z,13.35
2024-03-07T17:54:32.696Z,14.00
2024-03-07T17:57:07.015Z,13.48
2024-03-07T17:59:42.487Z,13.60
2024-03-07T18:02:21.926Z,13.35
2024-03-07T18:04:54.024Z,12.88
2024-03-07T18:07:29.928Z,13.55
2024-03-07T18:10:13.887Z,13.55
2024-03-07T18:12:54.270Z,14.05
2024-03-07T18:15:28.976Z,13.63
2024-03-07T18:18:05.322Z,13.90
2024-03-07T18:20:52.323Z,13.88
2024-03-07T18:23:28.103Z,14.10
2024-03-07T18:26:01.917Z,13.27
2024-03-07T18:28:34.692Z,16.37
2024-03-07T18:31:28.691Z,13.15
2024-03-07T18:34:01.191Z,12.98
2024-03-07T18:36:35.907Z,14.00
2024-03-07T18:41:52.844Z,13.57
2024-03-07T18:44:27.819Z,14.80
2024-03-07T18:47:01.876Z,15.02
2024-03-07T18:49:37.196Z,13.90
2024-03-07T18:52:08.986Z,13.52
2024-03-07T18:54:44.399Z,15.98
2024-03-07T18:57:31.504Z,14.77
2024-03-07T19:00:05.736Z,15.45
2024-03-07T19:02:42.290Z,14.23
2024-03-07T19:05:15.560Z,14.77
2024-03-07T19:07:47.310Z,14.98
2024-03-07T19:10:19.329Z,14.82
2024-03-07T19:12:54.923Z,14.90
2024-03-07T19:15:28.570Z,15.68
2024-03-07T19:18:01.191Z,15.52
2024-03-07T19:20:33.331Z,16.20
2024-03-07T19:23:10.176Z,15.38
2024-03-07T19:25:54.990Z,14.77
2024-03-07T19:28:26.977Z,15.75
2024-03-07T19:31:00.218Z,15.57
2024-03-07T19:33:35.475Z,13.90
2024-03-07T19:36:14.604Z,16.38
2024-03-07T19:38:49.763Z,15.93
2024-03-07T19:41:24.089Z,15.38
2024-03-07T19:43:58.920Z,15.48
2024-03-07T19:46:32.722Z,14.73
2024-03-07T19:49:07.657Z,15.27
2024-03-07T19:54:13.592Z,15.88
2024-03-07T19:56:51.592Z,15.15
2024-03-07T19:59:23.567Z,15.52
2024-03-07T20:01:55.773Z,15.98
2024-03-07T20:04:27.473Z,15.70
2024-03-07T20:07:00.407Z,15.80
2024-03-07T20:09:36.714Z,15.70
2024-03-07T20:12:08.751Z,15.57
2024-03-07T20:14:40.646Z,16.83
2024-03-07T20:17:13.060Z,17.42
2024-03-07T20:19:47.939Z,16.08
2024-03-07T20:22:22.761Z,15.90
2024-03-07T20:27:26.170Z,16.38
2024-03-07T20:29:59.123Z,17.30
2024-03-07T20:32:31.177Z,17.80
2024-03-07T20:35:07.259Z,18.00
2024-03-07T20:37:39.837Z,19.00
2024-03-07T20:40:14.643Z,19.02
2024-03-07T20:45:22.967Z,18.92
2024-03-07T20:47:55.640Z,19.13
2024-03-07T20:50:30.129Z,17.65
2024-03-07T20:53:02.429Z,19.42
2024-03-07T20:55:37.188Z,20.30
2024-03-07T21:00:48.434Z,18.42
2024-03-07T21:03:24.695Z,18.58
2024-03-07T21:05:58.693Z,19.35
2024-03-07T21:08:34.134Z,18.25
2024-03-07T21:11:07.591Z,19.08
2024-03-07T21:13:40.298Z,19.80
2024-03-07T21:16:13.021Z,20.00
2024-03-07T21:18:45.100Z,19.98
2024-03-07T21:21:16.816Z,19.60
2024-03-07T21:23:49.154Z,19.77
2024-03-07T21:26:21.050Z,19.85
2024-03-07T21:28:55.163Z,21.23
2024-03-07T21:31:27.806Z,20.75
2024-03-07T21:33:59.585Z,21.05
2024-03-07T21:36:31.390Z,21.42
2024-03-07T21:39:03.234Z,20.33
2024-03-07T21:41:38.201Z,20.92
2024-03-07T21:46:42.624Z,21.33
2024-03-07T21:49:15.438Z,20.58
2024-03-07T21:51:50.556Z,21.73
2024-03-07T21:54:23.033Z,20.33
2024-03-07T21:57:00.700Z,21.13
2024-03-07T21:59:35.261Z,20.85
2024-03-07T22:02:21.080Z,21.73
2024-03-07T22:04:53.673Z,22.10
2024-03-07T22:07:25.873Z,22.40
2024-03-07T22:10:00.423Z,21.83
2024-03-07T22:12:34.978Z,22.40
2024-03-07T22:15:26.283Z,21.73
2024-03-07T22:18:00.210Z,21.92
2024-03-07T22:20:32.521Z,20.77
2024-03-07T22:23:06.031Z,22.38
2024-03-07T22:25:37.907Z,21.48
2024-03-07T22:28:09.649Z,22.30
2024-03-07T22:30:42.426Z,22.75
2024-03-07T22:33:14.216Z,23.75
2024-03-07T22:35:48.760Z,22.90
2024-03-07T22:38:22.751Z,22.67
2024-03-07T22:40:56.109Z,23.23
2024-03-07T22:43:28.213Z,22.77
2024-03-07T22:46:00.047Z,23.10
2024-03-07T22:48:36.438Z,23.45
2024-03-07T22:51:11.725Z,22.48
2024-03-07T22:56:17.094Z,23.08
2024-03-07T22:58:49.010Z,23.48
2024-03-07T23:01:35.145Z,22.65
2024-03-07T23:04:06.987Z,24.70
2024-03-07T23:06:38.733Z,23.38
2024-03-07T23:09:10.669Z,24.48
2024-03-07T23:11:43.930Z,24.10
2024-03-07T23:14:16.742Z,23.88
2024-03-07T23:16:50.099Z,25.02
2024-03-07T23:19:21.855Z,25.85
2024-03-07T23:21:55.205Z,25.65
2024-03-07T23:24:27.365Z,25.08
2024-03-07T23:26:59.147Z,25.30
2024-03-07T23:29:31.338Z,25.73
2024-03-07T23:32:03.715Z,25.17
2024-03-07T23:34:35.638Z,25.08
2024-03-07T23:37:16.465Z,25.40
2024-03-07T23:39:48.568Z,25.38
2024-03-07T23:42:22.086Z,24.52
2024-03-07T23:44:55.672Z,25.77
2024-03-07T23:47:27.655Z,25.45
2024-03-07T23:49:59.825Z,25.08
2024-03-07T23:52:31.582Z,25.42
2024-03-07T23:55:03.498Z,25.67
2024-03-07T23:57:35.296Z,25.98
